createdAt,value
2024-02-20T00:00:34.400Z,97474.56
2024-02-20T00:01:36.177Z,97470.22
2024-02-20T00:02:37.854Z,97472.09
2024-02-20T00:03:39.478Z,97472.09
2024-02-20T00:04:41.148Z,97467.44
2024-02-20T00:05:42.876Z,97473.69
2024-02-20T00:06:44.988Z,97468.28
2024-02-20T00:07:46.903Z,97469.84
2024-02-20T00:08:48.512Z,97472.56
2024-02-20T00:09:50.233Z,97474.91
2024-02-20T00:10:51.941Z,97467.91
2024-02-20T00:11:53.614Z,97471.03
2024-02-20T00:12:55.267Z,97469.13
2024-02-20T00:13:59.804Z,97474.97
2024-02-20T00:15:02.901Z,97469.13
2024-02-20T00:16:05.980Z,97474.13
2024-02-20T00:17:08.510Z,97467.19
2024-02-20T00:18:11.431Z,97469.19
2024-02-20T00:19:13.313Z,97469.19
2024-02-20T00:20:14.956Z,97471.09
2024-02-20T00:21:16.541Z,97467.59
2024-02-20T00:22:18.150Z,97469.19
2024-02-20T00:23:19.756Z,97469.94
2024-02-20T00:24:21.313Z,97474.25
2024-02-20T00:25:23.171Z,97469.94
2024-02-20T00:26:25.743Z,97466.09
2024-02-20T00:27:27.846Z,97469.19
2024-02-20T00:28:29.534Z,97462.94
2024-02-20T00:29:31.193Z,97459.88
2024-02-20T00:30:32.779Z,97459.88
2024-02-20T00:31:35.711Z,97460.69
2024-02-20T00:32:38.090Z,97464.47
2024-02-20T00:33:39.772Z,97462.47
2024-02-20T00:34:41.379Z,97465.94
2024-02-20T00:35:43.231Z,97464.38
2024-02-20T00:36:44.777Z,97462.44
2024-02-20T00:37:46.923Z,97458.13
2024-02-20T00:38:48.489Z,97451.53
2024-02-20T00:39:50.141Z,97454.66
2024-02-20T00:40:51.823Z,97459.31
2024-02-20T00:41:53.442Z,97452.34
2024-02-20T00:42:55.023Z,97455.81
2024-02-20T00:43:56.619Z,97455.06
2024-02-20T00:45:02.449Z,97455.00
2024-02-20T00:46:04.517Z,97447.94
2024-02-20T00:47:10.938Z,97446.75
2024-02-20T00:48:14.033Z,97450.25
2024-02-20T00:49:15.833Z,97443.66
2024-02-20T00:50:17.579Z,97445.19
2024-02-20T00:51:20.952Z,97445.53
2024-02-20T00:52:24.635Z,97445.84
2024-02-20T00:53:26.245Z,97443.06
2024-02-20T00:54:27.884Z,97443.44
2024-02-20T00:55:29.601Z,97446.34
2024-02-20T00:56:31.945Z,97446.59
2024-02-20T00:57:33.548Z,97448.41
2024-02-20T00:58:35.180Z,97449.13
2024-02-20T00:59:37.009Z,97457.56
2024-02-20T01:00:38.820Z,97446.31
2024-02-20T01:01:40.575Z,97450.94
2024-02-20T01:02:42.308Z,97447.44
2024-02-20T01:03:44.570Z,97447.03
2024-02-20T01:04:46.288Z,97443.16
2024-02-20T01:05:48.076Z,97450.50
2024-02-20T01:06:49.724Z,97445.09
2024-02-20T01:07:51.332Z,97447.81
2024-02-20T01:08:53.004Z,97440.84
2024-02-20T01:09:54.672Z,97445.44
2024-02-20T01:10:56.388Z,97443.91
2024-02-20T01:11:57.984Z,97436.78
2024-02-20T01:13:01.473Z,97441.28
2024-02-20T01:14:03.240Z,97442.00
2024-02-20T01:15:05.552Z,97445.94
2024-02-20T01:16:08.023Z,97449.06
2024-02-20T01:17:09.611Z,97443.28
2024-02-20T01:18:11.354Z,97439.06
2024-02-20T01:19:13.218Z,97434.78
2024-02-20T01:20:14.914Z,97443.28
2024-02-20T01:21:16.593Z,97436.72
2024-02-20T01:22:18.205Z,97435.94
2024-02-20T01:23:20.165Z,97436.00
2024-02-20T01:24:21.805Z,97436.06
2024-02-20T01:25:23.539Z,97433.78
2024-02-20T01:26:25.115Z,97426.06
2024-02-20T01:27:26.799Z,97432.25
2024-02-20T01:28:28.528Z,97428.41
2024-02-20T01:29:30.426Z,97435.03
2024-02-20T01:30:32.412Z,97433.91
2024-02-20T01:31:34.259Z,97433.47
2024-02-20T01:32:35.965Z,97431.84
2024-02-20T01:33:37.624Z,97432.06
2024-02-20T01:34:39.522Z,97429.44
2024-02-20T01:35:42.675Z,97428.44
2024-02-20T01:36:44.276Z,97426.09
2024-02-20T01:37:45.868Z,97431.06
2024-02-20T01:38:47.699Z,97427.66
2024-02-20T01:39:49.344Z,97426.88
2024-02-20T01:40:50.938Z,97430.78
2024-02-20T01:41:52.465Z,97437.03
2024-02-20T01:43:01.250Z,97439.41
2024-02-20T01:44:02.960Z,97429.78
2024-02-20T01:45:05.061Z,97424.78
2024-02-20T01:46:08.566Z,97429.03
2024-02-20T01:47:10.166Z,97429.03
2024-02-20T01:48:12.032Z,97428.97
2024-02-20T01:49:14.186Z,97426.09
2024-02-20T01:50:16.267Z,97422.88
2024-02-20T01:51:20.174Z,97425.09
2024-02-20T01:52:21.859Z,97425.03
2024-02-20T01:53:23.772Z,97423.75
2024-02-20T01:54:25.690Z,97429.84
2024-02-20T01:55:28.086Z,97421.66
2024-02-20T01:56:30.624Z,97434.00
2024-02-20T01:57:32.698Z,97426.59
2024-02-20T01:58:34.833Z,97418.25
2024-02-20T01:59:36.681Z,97424.38
2024-02-20T02:00:38.262Z,97423.44
2024-02-20T02:01:40.089Z,97423.72
2024-02-20T02:02:42.964Z,97424.91
2024-02-20T02:03:44.668Z,97425.72
2024-02-20T02:04:46.417Z,97425.94
2024-02-20T02:05:48.360Z,97425.50
2024-02-20T02:06:50.181Z,97427.25
2024-02-20T02:07:51.917Z,97426.81
2024-02-20T02:08:53.979Z,97434.66
2024-02-20T02:09:55.599Z,97422.44
2024-02-20T02:10:57.433Z,97420.94
2024-02-20T02:11:59.110Z,97423.28
2024-02-20T02:13:00.682Z,97419.81
2024-02-20T02:14:02.320Z,97422.06
2024-02-20T02:15:04.253Z,97419.88
2024-02-20T02:16:06.101Z,97425.38
2024-02-20T02:17:08.059Z,97408.34
2024-02-20T02:18:09.731Z,97409.56
2024-02-20T02:19:11.390Z,97419.66
2024-02-20T02:20:13.136Z,97417.75
2024-02-20T02:21:14.912Z,97413.06
2024-02-20T02:22:16.539Z,97411.47
2024-02-20T02:23:18.148Z,97408.50
2024-02-20T02:24:19.734Z,97410.41
2024-02-20T02:25:21.590Z,97408.91
2024-02-20T02:26:23.815Z,97400.88
2024-02-20T02:27:25.425Z,97411.06
2024-02-20T02:28:27.174Z,97404.03
2024-02-20T02:29:29.627Z,97405.56
2024-02-20T02:30:31.170Z,97406.81
2024-02-20T02:31:33.171Z,97406.81
2024-02-20T02:32:34.929Z,97404.53
2024-02-20T02:33:37.056Z,97407.56
2024-02-20T02:34:38.729Z,97410.22
2024-02-20T02:35:40.655Z,97412.84
2024-02-20T02:36:42.234Z,97406.66
2024-02-20T02:37:43.869Z,97409.88
2024-02-20T02:38:45.508Z,97406.88
2024-02-20T02:39:47.423Z,97410.00
2024-02-20T02:40:48.984Z,97411.56
2024-02-20T02:41:51.429Z,97408.06
2024-02-20T02:42:53.149Z,97401.88
2024-02-20T02:43:54.824Z,97406.22
2024-02-20T02:44:56.364Z,97407.16
2024-02-20T02:45:58.237Z,97413.00
2024-02-20T02:46:59.981Z,97408.69
2024-02-20T02:48:01.626Z,97412.56
2024-02-20T02:49:03.358Z,97411.84
2024-02-20T02:50:05.611Z,97411.94
2024-02-20T02:51:09.795Z,97412.34
2024-02-20T02:52:11.600Z,97411.41
2024-02-20T02:53:13.515Z,97409.34
2024-02-20T02:54:15.148Z,97411.84
2024-02-20T02:55:17.498Z,97420.59
2024-02-20T02:56:19.105Z,97413.41
2024-02-20T02:57:20.668Z,97417.34
2024-02-20T02:58:22.336Z,97413.91
2024-02-20T02:59:24.145Z,97419.03
2024-02-20T03:00:25.774Z,97412.22
2024-02-20T03:01:27.766Z,97414.59
2024-02-20T03:02:29.363Z,97413.19
2024-02-20T03:03:31.035Z,97409.72
2024-02-20T03:04:33.065Z,97415.28
2024-02-20T03:05:37.566Z,97407.38
2024-02-20T03:06:41.162Z,97414.19
2024-02-20T03:07:42.757Z,97412.63
2024-02-20T03:08:46.547Z,97416.09
2024-02-20T03:09:48.136Z,97416.81
2024-02-20T03:10:49.885Z,97414.47
2024-02-20T03:11:51.583Z,97408.00
2024-02-20T03:12:57.028Z,97419.59
2024-02-20T03:13:59.356Z,97420.47
2024-02-20T03:15:00.917Z,97413.63
2024-02-20T03:16:03.648Z,97415.34
2024-02-20T03:17:05.430Z,97411.19
2024-02-20T03:18:07.957Z,97417.44
2024-02-20T03:19:10.501Z,97426.09
2024-02-20T03:20:16.508Z,97408.38
2024-02-20T03:21:21.324Z,97422.75
2024-02-20T03:22:24.591Z,97422.81
2024-02-20T03:23:28.039Z,97429.88
2024-02-20T03:24:29.947Z,97433.44
2024-02-20T03:25:31.588Z,97425.38
2024-02-20T03:26:33.174Z,97420.38
2024-02-20T03:27:36.222Z,97420.44
2024-02-20T03:28:37.809Z,97423.16
2024-02-20T03:29:39.519Z,97431.28
2024-02-20T03:30:42.274Z,97422.44
2024-02-20T03:31:44.161Z,97422.50
2024-02-20T03:32:45.882Z,97420.16
2024-02-20T03:33:47.599Z,97430.16
2024-02-20T03:34:49.283Z,97429.16
2024-02-20T03:35:51.073Z,97427.38
2024-02-20T03:36:52.768Z,97422.59
2024-02-20T03:37:54.396Z,97424.44
2024-02-20T03:38:55.936Z,97428.72
2024-02-20T03:39:57.515Z,97434.22
2024-02-20T03:40:59.185Z,97429.66
2024-02-20T03:42:00.736Z,97427.38
2024-02-20T03:43:04.839Z,97428.22
2024-02-20T03:44:06.433Z,97431.34
2024-02-20T03:45:08.338Z,97436.47
2024-02-20T03:46:10.463Z,97431.13
2024-02-20T03:47:12.091Z,97437.78
2024-02-20T03:48:13.941Z,97432.84
2024-02-20T03:49:15.760Z,97432.56
2024-02-20T03:50:17.618Z,97426.41
2024-02-20T03:51:19.583Z,97433.47
2024-02-20T03:52:21.385Z,97428.13
2024-02-20T03:53:22.926Z,97429.69
2024-02-20T03:54:24.529Z,97428.94
2024-02-20T03:55:26.337Z,97430.94
2024-02-20T03:56:27.911Z,97429.88
2024-02-20T03:57:29.458Z,97429.44
2024-02-20T03:58:30.992Z,97429.88
2024-02-20T03:59:33.142Z,97435.28
2024-02-20T04:00:34.790Z,97425.94
2024-02-20T04:01:36.592Z,97433.72
2024-02-20T04:02:43.302Z,97429.94
2024-02-20T04:03:45.024Z,97430.78
2024-02-20T04:04:46.693Z,97425.41
2024-02-20T04:05:49.185Z,97430.88
2024-02-20T04:06:51.641Z,97431.31
2024-02-20T04:07:53.450Z,97431.72
2024-02-20T04:08:55.410Z,97434.84
2024-02-20T04:09:57.035Z,97439.13
2024-02-20T04:10:58.891Z,97439.19
2024-02-20T04:12:00.607Z,97440.69
2024-02-20T04:13:02.360Z,97446.56
2024-02-20T04:14:04.379Z,97440.38
2024-02-20T04:15:07.479Z,97440.81
2024-02-20T04:16:09.156Z,97435.03
2024-02-20T04:17:10.729Z,97432.66
2024-02-20T04:18:12.296Z,97432.63
2024-02-20T04:19:14.116Z,97425.66
2024-02-20T04:20:15.943Z,97436.66
2024-02-20T04:21:17.550Z,97419.47
2024-02-20T04:22:19.174Z,97431.59
2024-02-20T04:23:20.798Z,97433.81
2024-02-20T04:24:22.374Z,97432.50
2024-02-20T04:25:24.253Z,97427.38
2024-02-20T04:26:26.592Z,97431.56
2024-02-20T04:27:28.958Z,97431.28
2024-02-20T04:28:36.366Z,97438.25
2024-02-20T04:29:38.090Z,97449.50
2024-02-20T04:30:45.608Z,97446.09
2024-02-20T04:31:47.290Z,97445.34
2024-02-20T04:32:48.940Z,97448.94
2024-02-20T04:33:50.819Z,97439.34
2024-02-20T04:34:52.661Z,97440.94
2024-02-20T04:35:54.266Z,97442.19
2024-02-20T04:36:55.877Z,97439.13
2024-02-20T04:37:57.677Z,97447.69
2024-02-20T04:38:59.287Z,97439.19
2024-02-20T04:40:01.004Z,97437.31
2024-02-20T04:41:02.619Z,97439.25
2024-02-20T04:42:04.586Z,97438.84
2024-02-20T04:43:07.430Z,97439.78
2024-02-20T04:44:09.440Z,97437.22
2024-02-20T04:45:11.504Z,97443.25
2024-02-20T04:46:13.082Z,97440.34
2024-02-20T04:47:14.752Z,97442.84
2024-02-20T04:48:16.493Z,97442.78
2024-02-20T04:49:18.342Z,97440.41
2024-02-20T04:50:19.972Z,97443.09
2024-02-20T04:51:21.576Z,97440.16
2024-02-20T04:52:23.210Z,97435.56
2024-02-20T04:53:25.516Z,97447.38
2024-02-20T04:54:28.026Z,97438.81
2024-02-20T04:55:30.134Z,97440.81
2024-02-20T04:56:31.747Z,97439.28
2024-02-20T04:57:33.341Z,97439.91
2024-02-20T04:58:35.546Z,97444.81
2024-02-20T04:59:37.305Z,97443.94
2024-02-20T05:00:38.948Z,97448.56
2024-02-20T05:01:40.652Z,97441.16
2024-02-20T05:02:43.423Z,97448.06
2024-02-20T05:03:47.152Z,97444.31
2024-02-20T05:04:48.788Z,97452.13
2024-02-20T05:05:50.365Z,97449.94
2024-02-20T05:06:52.021Z,97450.44
2024-02-20T05:07:53.692Z,97453.22
2024-02-20T05:08:55.466Z,97452.56
2024-02-20T05:09:57.084Z,97456.22
2024-02-20T05:10:58.768Z,97448.97
2024-02-20T05:12:00.954Z,97459.94
2024-02-20T05:13:04.556Z,97450.03
2024-02-20T05:14:06.167Z,97451.25
2024-02-20T05:15:08.588Z,97447.44
2024-02-20T05:16:10.424Z,97453.28
2024-02-20T05:17:12.106Z,97455.63
2024-02-20T05:18:13.864Z,97449.50
2024-02-20T05:19:15.586Z,97454.63
2024-02-20T05:20:17.827Z,97460.91
2024-02-20T05:21:19.437Z,97461.75
2024-02-20T05:22:21.357Z,97460.66
2024-02-20T05:23:23.311Z,97459.59
2024-02-20T05:24:24.916Z,97464.69
2024-02-20T05:25:26.564Z,97461.63
2024-02-20T05:26:28.156Z,97457.78
2024-02-20T05:27:29.739Z,97466.75
2024-02-20T05:28:31.438Z,97459.84
2024-02-20T05:29:33.112Z,97466.47
2024-02-20T05:30:37.242Z,97459.53
2024-02-20T05:31:38.907Z,97467.66
2024-02-20T05:32:40.666Z,97464.25
2024-02-20T05:33:42.383Z,97465.47
2024-02-20T05:34:44.337Z,97474.31
2024-02-20T05:35:46.329Z,97471.94
2024-02-20T05:36:47.956Z,97473.06
2024-02-20T05:37:49.642Z,97475.50
2024-02-20T05:38:51.350Z,97475.91
2024-02-20T05:39:52.990Z,97485.19
2024-02-20T05:40:56.168Z,97475.91
2024-02-20T05:41:58.016Z,97480.19
2024-02-20T05:42:59.631Z,97487.25
2024-02-20T05:44:02.060Z,97488.44
2024-02-20T05:45:03.953Z,97490.88
2024-02-20T05:46:05.595Z,97494.06
2024-02-20T05:47:07.263Z,97489.81
2024-02-20T05:48:09.169Z,97487.09
2024-02-20T05:49:11.014Z,97487.56
2024-02-20T05:50:12.988Z,97486.34
2024-02-20T05:51:16.776Z,97486.28
2024-02-20T05:52:18.845Z,97486.88
2024-02-20T05:53:20.461Z,97494.28
2024-02-20T05:54:22.263Z,97487.94
2024-02-20T05:55:23.985Z,97488.19
2024-02-20T05:56:26.038Z,97490.47
2024-02-20T05:57:27.621Z,97498.16
2024-02-20T05:58:29.183Z,97490.81
2024-02-20T05:59:31.610Z,97495.94
2024-02-20T06:00:33.335Z,97493.66
2024-02-20T06:01:35.134Z,97494.16
2024-02-20T06:02:36.782Z,97498.50
2024-02-20T06:03:39.238Z,97501.34
2024-02-20T06:04:41.032Z,97496.34
2024-02-20T06:05:42.803Z,97497.47
2024-02-20T06:06:44.644Z,97502.53
2024-02-20T06:07:46.290Z,97503.75
2024-02-20T06:08:48.103Z,97512.72
2024-02-20T06:09:49.996Z,97505.34
2024-02-20T06:10:51.871Z,97515.91
2024-02-20T06:11:53.533Z,97508.19
2024-02-20T06:12:55.149Z,97516.69
2024-02-20T06:13:56.824Z,97516.38
2024-02-20T06:14:58.450Z,97511.81
2024-02-20T06:16:00.087Z,97521.16
2024-02-20T06:17:01.660Z,97516.09
2024-02-20T06:18:03.422Z,97518.84
2024-02-20T06:19:05.138Z,97515.50
2024-02-20T06:20:08.680Z,97517.50
2024-02-20T06:21:10.575Z,97522.16
2024-02-20T06:22:12.149Z,97517.91
2024-02-20T06:23:14.238Z,97523.75
2024-02-20T06:24:15.883Z,97525.38
2024-02-20T06:25:17.753Z,97525.44
2024-02-20T06:26:20.057Z,97518.50
2024-02-20T06:27:21.880Z,97515.00
2024-02-20T06:28:23.695Z,97519.28
2024-02-20T06:29:25.733Z,97524.69
2024-02-20T06:30:27.343Z,97517.72
2024-02-20T06:31:28.945Z,97528.94
2024-02-20T06:32:33.342Z,97525.38
2024-02-20T06:33:37.023Z,97520.78
2024-02-20T06:34:40.436Z,97524.69
2024-02-20T06:35:43.058Z,97527.47
2024-02-20T06:36:44.716Z,97527.09
2024-02-20T06:37:46.258Z,97531.41
2024-02-20T06:38:47.837Z,97530.22
2024-02-20T06:39:51.187Z,97527.88
2024-02-20T06:40:53.812Z,97532.78
2024-02-20T06:41:55.427Z,97529.94
2024-02-20T06:42:56.966Z,97530.94
2024-02-20T06:43:58.561Z,97528.16
2024-02-20T06:45:00.674Z,97527.72
2024-02-20T06:46:02.863Z,97532.00
2024-02-20T06:47:04.842Z,97529.75
2024-02-20T06:48:06.746Z,97531.81
2024-02-20T06:49:08.540Z,97529.59
2024-02-20T06:50:14.094Z,97533.94
2024-02-20T06:51:15.907Z,97538.25
2024-02-20T06:52:17.627Z,97536.41
2024-02-20T06:53:19.206Z,97540.31
2024-02-20T06:54:20.816Z,97538.72
2024-02-20T06:55:22.522Z,97533.31
2024-02-20T06:56:24.302Z,97530.66
2024-02-20T06:57:25.858Z,97542.31
2024-02-20T06:58:28.965Z,97536.47
2024-02-20T06:59:30.755Z,97539.53
2024-02-20T07:00:32.503Z,97534.47
2024-02-20T07:01:34.429Z,97541.44
2024-02-20T07:02:36.108Z,97541.94
2024-02-20T07:03:37.751Z,97537.28
2024-02-20T07:04:41.704Z,97540.06
2024-02-20T07:05:43.828Z,97542.81
2024-02-20T07:06:45.670Z,97539.34
2024-02-20T07:07:47.387Z,97534.69
2024-02-20T07:08:48.993Z,97538.13
2024-02-20T07:09:50.537Z,97535.81
2024-02-20T07:10:52.532Z,97542.88
2024-02-20T07:11:54.341Z,97537.09
2024-02-20T07:12:58.867Z,97538.59
2024-02-20T07:14:00.507Z,97532.94
2024-02-20T07:15:03.598Z,97538.72
2024-02-20T07:16:06.585Z,97533.13
2024-02-20T07:17:08.185Z,97541.31
2024-02-20T07:18:09.763Z,97537.13
2024-02-20T07:19:12.159Z,97540.25
2024-02-20T07:20:14.340Z,97544.94
2024-02-20T07:21:16.117Z,97540.31
2024-02-20T07:22:17.714Z,97538.13
2024-02-20T07:23:19.404Z,97541.59
2024-02-20T07:24:21.668Z,97543.97
2024-02-20T07:25:24.161Z,97539.69
2024-02-20T07:26:28.320Z,97536.63
2024-02-20T07:27:29.958Z,97543.97
2024-02-20T07:28:32.484Z,97540.78
2024-02-20T07:29:34.176Z,97542.13
2024-02-20T07:30:35.787Z,97545.56
2024-02-20T07:31:37.780Z,97547.38
2024-02-20T07:32:41.315Z,97538.56
2024-02-20T07:33:48.424Z,97541.78
2024-02-20T07:34:52.670Z,97548.03
2024-02-20T07:35:54.481Z,97543.78
2024-02-20T07:36:56.192Z,97549.28
2024-02-20T07:37:57.978Z,97543.19
2024-02-20T07:38:59.572Z,97542.16
2024-02-20T07:40:01.315Z,97545.75
2024-02-20T07:41:04.674Z,97542.28
2024-02-20T07:42:08.576Z,97536.03
2024-02-20T07:43:10.241Z,97539.88
2024-02-20T07:44:11.997Z,97547.19
2024-02-20T07:45:13.805Z,97543.25
2024-02-20T07:46:15.893Z,97546.97
2024-02-20T07:47:17.495Z,97546.56
2024-02-20T07:48:19.230Z,97546.19
2024-02-20T07:49:21.270Z,97552.03
2024-02-20T07:50:26.550Z,97541.88
2024-02-20T07:51:29.334Z,97537.22
2024-02-20T07:52:31.135Z,97548.13
2024-02-20T07:53:32.907Z,97549.03
2024-02-20T07:54:34.435Z,97544.06
2024-02-20T07:55:41.457Z,97543.34
2024-02-20T07:56:43.872Z,97546.13
2024-02-20T07:57:45.489Z,97543.09
2024-02-20T07:58:47.099Z,97545.44
2024-02-20T07:59:48.939Z,97543.94
2024-02-20T08:00:50.722Z,97541.31
2024-02-20T08:01:53.988Z,97549.56
2024-02-20T08:02:55.826Z,97542.19
2024-02-20T08:03:58.214Z,97547.34
2024-02-20T08:05:00.061Z,97551.44
2024-02-20T08:06:01.729Z,97547.13
2024-02-20T08:07:03.951Z,97548.31
2024-02-20T08:08:06.660Z,97544.75
2024-02-20T08:09:08.437Z,97550.16
2024-02-20T08:10:13.197Z,97551.03
2024-02-20T08:11:15.621Z,97548.44
2024-02-20T08:12:17.859Z,97545.78
2024-02-20T08:13:23.137Z,97547.31
2024-02-20T08:14:26.925Z,97548.53
2024-02-20T08:15:29.079Z,97540.94
2024-02-20T08:16:32.781Z,97544.16
2024-02-20T08:17:34.779Z,97533.66
2024-02-20T08:18:36.414Z,97544.88
2024-02-20T08:19:38.244Z,97541.53
2024-02-20T08:20:39.886Z,97540.13
2024-02-20T08:21:41.492Z,97542.22
2024-02-20T08:22:44.086Z,97539.94
2024-02-20T08:23:45.887Z,97539.28
2024-02-20T08:24:47.521Z,97537.91
2024-02-20T08:25:49.139Z,97538.41
2024-02-20T08:26:51.171Z,97540.78
2024-02-20T08:27:52.796Z,97542.44
2024-02-20T08:28:54.863Z,97535.38
2024-02-20T08:29:56.583Z,97528.16
2024-02-20T08:30:58.735Z,97534.44
2024-02-20T08:32:00.342Z,97535.72
2024-02-20T08:33:01.996Z,97535.78
2024-02-20T08:34:03.775Z,97537.00
2024-02-20T08:35:06.252Z,97538.97
2024-02-20T08:36:08.122Z,97535.09
2024-02-20T08:37:09.913Z,97542.81
2024-02-20T08:38:11.493Z,97539.28
2024-02-20T08:39:13.366Z,97537.38
2024-02-20T08:40:15.197Z,97528.38
2024-02-20T08:41:16.809Z,97536.53
2024-02-20T08:42:19.388Z,97538.91
2024-02-20T08:43:21.186Z,97539.34
2024-02-20T08:44:25.142Z,97534.31
2024-02-20T08:45:26.774Z,97536.69
2024-02-20T08:46:28.478Z,97534.75
2024-02-20T08:47:30.309Z,97540.16
2024-02-20T08:48:32.020Z,97544.06
2024-02-20T08:49:33.861Z,97540.16
2024-02-20T08:50:35.580Z,97541.75
2024-02-20T08:51:37.193Z,97542.50
2024-02-20T08:52:38.947Z,97535.84
2024-02-20T08:53:40.581Z,97534.69
2024-02-20T08:54:42.133Z,97541.31
2024-02-20T08:55:43.923Z,97541.34
2024-02-20T08:56:45.583Z,97537.81
2024-02-20T08:57:47.277Z,97539.41
2024-02-20T08:58:55.268Z,97531.59
2024-02-20T08:59:56.809Z,97535.81
2024-02-20T09:01:00.007Z,97542.44
2024-02-20T09:02:04.963Z,97532.75
2024-02-20T09:03:06.897Z,97544.03
2024-02-20T09:04:09.729Z,97541.28
2024-02-20T09:05:11.981Z,97544.41
2024-02-20T09:06:13.890Z,97536.97
2024-02-20T09:07:15.616Z,97538.91
2024-02-20T09:08:17.271Z,97543.19
2024-02-20T09:09:19.361Z,97538.59
2024-02-20T09:10:21.210Z,97536.31
2024-02-20T09:11:22.851Z,97537.09
2024-02-20T09:12:24.489Z,97536.34
2024-02-20T09:13:26.056Z,97534.03
2024-02-20T09:14:27.700Z,97534.03
2024-02-20T09:15:29.322Z,97534.47
2024-02-20T09:16:31.023Z,97536.50
2024-02-20T09:17:32.797Z,97531.84
2024-02-20T09:18:35.617Z,97533.47
2024-02-20T09:19:37.319Z,97527.63
2024-02-20T09:20:39.015Z,97529.97
2024-02-20T09:21:41.294Z,97533.84
2024-02-20T09:22:43.061Z,97527.22
2024-02-20T09:23:45.057Z,97532.66
2024-02-20T09:24:46.841Z,97532.63
2024-02-20T09:25:48.450Z,97534.19
2024-02-20T09:26:50.135Z,97527.13
2024-02-20T09:27:51.770Z,97531.06
2024-02-20T09:28:53.482Z,97526.38
2024-02-20T09:29:55.228Z,97527.53
2024-02-20T09:30:56.928Z,97526.34
2024-02-20T09:32:02.077Z,97532.91
2024-02-20T09:33:04.426Z,97523.59
2024-02-20T09:34:06.095Z,97523.22
2024-02-20T09:35:08.669Z,97524.38
2024-02-20T09:36:10.994Z,97518.53
2024-02-20T09:37:12.695Z,97525.53
2024-02-20T09:38:17.259Z,97526.59
2024-02-20T09:39:22.883Z,97522.28
2024-02-20T09:40:24.580Z,97523.84
2024-02-20T09:41:27.674Z,97526.59
2024-02-20T09:42:31.630Z,97522.72
2024-02-20T09:43:34.112Z,97520.78
2024-02-20T09:44:40.463Z,97520.03
2024-02-20T09:45:43.536Z,97515.41
2024-02-20T09:46:52.701Z,97512.34
2024-02-20T09:47:56.492Z,97510.78
2024-02-20T09:49:01.416Z,97512.38
2024-02-20T09:50:03.682Z,97509.69
2024-02-20T09:51:06.805Z,97506.97
2024-02-20T09:52:09.540Z,97502.66
2024-02-20T09:53:14.348Z,97503.03
2024-02-20T09:54:18.118Z,97496.06
2024-02-20T09:55:20.083Z,97502.66
2024-02-20T09:56:22.581Z,97503.47
2024-02-20T09:57:25.064Z,97501.50
2024-02-20T09:58:29.905Z,97495.28
2024-02-20T09:59:36.235Z,97488.66
2024-02-20T10:00:37.955Z,97486.31
2024-02-20T10:01:40.083Z,97485.16
2024-02-20T10:02:45.557Z,97482.44
2024-02-20T10:03:49.116Z,97479.31
2024-02-20T10:04:51.289Z,97480.47
2024-02-20T10:05:53.969Z,97480.47
2024-02-20T10:06:55.787Z,97477.34
2024-02-20T10:08:02.108Z,97475.78
2024-02-20T10:09:04.160Z,97478.13
2024-02-20T10:10:10.452Z,97482.03
2024-02-20T10:11:12.200Z,97477.34
2024-02-20T10:12:24.740Z,97477.72
2024-02-20T10:13:26.586Z,97473.03
2024-02-20T10:14:29.002Z,97469.56
2024-02-20T10:15:30.804Z,97464.47
2024-02-20T10:16:32.526Z,97464.47
2024-02-20T10:17:35.073Z,97468.78
2024-02-20T10:18:36.686Z,97463.28
2024-02-20T10:19:38.374Z,97468.34
2024-02-20T10:20:40.312Z,97465.63
2024-02-20T10:21:51.710Z,97467.19
2024-02-20T10:23:04.037Z,97461.72
2024-02-20T10:24:11.966Z,97457.84
2024-02-20T10:25:19.425Z,97462.53
2024-02-20T10:26:21.022Z,97459.00
2024-02-20T10:27:22.711Z,97455.88
2024-02-20T10:28:25.397Z,97448.06
2024-02-20T10:29:29.422Z,97452.75
2024-02-20T10:30:31.661Z,97451.97
2024-02-20T10:31:34.229Z,97447.25
2024-02-20T10:32:37.723Z,97447.25
2024-02-20T10:33:39.524Z,97443.75
2024-02-20T10:34:41.425Z,97438.25
2024-02-20T10:35:44.334Z,97441.34
2024-02-20T10:36:46.168Z,97447.59
2024-02-20T10:38:01.939Z,97449.56
2024-02-20T10:39:07.963Z,97439.41
2024-02-20T10:40:21.926Z,97434.34
2024-02-20T10:41:29.151Z,97437.91
2024-02-20T10:42:38.193Z,97435.97
2024-02-20T10:43:40.841Z,97434.75
2024-02-20T10:44:44.128Z,97432.81
2024-02-20T10:45:52.290Z,97432.00
2024-02-20T10:46:58.335Z,97439.75
2024-02-20T10:48:04.089Z,97432.34
2024-02-20T10:49:28.770Z,97426.47
2024-02-20T10:50:34.492Z,97429.19
2024-02-20T10:51:37.896Z,97428.03
2024-02-20T10:52:40.789Z,97417.47
2024-02-20T10:53:45.686Z,97421.03
2024-02-20T10:54:56.295Z,97414.78
2024-02-20T10:56:05.887Z,97424.19
2024-02-20T10:57:08.530Z,97410.88
2024-02-20T10:58:17.719Z,97422.63
2024-02-20T10:59:22.079Z,97409.31
2024-02-20T11:00:24.279Z,97410.09
2024-02-20T11:01:27.724Z,97411.69
2024-02-20T11:02:29.883Z,97411.69
2024-02-20T11:03:41.360Z,97413.66
2024-02-20T11:04:48.089Z,97411.28
2024-02-20T11:05:53.336Z,97412.81
2024-02-20T11:06:56.390Z,97411.59
2024-02-20T11:08:09.188Z,97415.47
2024-02-20T11:09:12.411Z,97400.22
2024-02-20T11:10:19.216Z,97398.59
2024-02-20T11:11:25.090Z,97409.13
2024-02-20T11:12:35.393Z,97401.25
2024-02-20T11:13:38.003Z,97404.00
2024-02-20T11:14:39.658Z,97408.31
2024-02-20T11:15:41.298Z,97404.41
2024-02-20T11:16:50.705Z,97401.66
2024-02-20T11:17:53.819Z,97397.31
2024-02-20T11:18:55.866Z,97399.31
2024-02-20T11:20:07.941Z,97399.72
2024-02-20T11:21:09.503Z,97398.09
2024-02-20T11:22:11.115Z,97396.53
2024-02-20T11:23:13.305Z,97393.38
2024-02-20T11:24:19.302Z,97397.25
2024-02-20T11:25:21.736Z,97398.06
2024-02-20T11:26:31.786Z,97389.06
2024-02-20T11:27:44.357Z,97387.09
2024-02-20T11:28:46.406Z,97392.25
2024-02-20T11:29:48.074Z,97388.38
2024-02-20T11:30:49.773Z,97382.13
2024-02-20T11:31:51.488Z,97387.16
2024-02-20T11:32:55.793Z,97382.47
2024-02-20T11:33:59.220Z,97384.81
2024-02-20T11:35:01.102Z,97378.16
2024-02-20T11:36:05.917Z,97380.13
2024-02-20T11:37:10.463Z,97381.63
2024-02-20T11:38:14.375Z,97375.38
2024-02-20T11:39:17.824Z,97380.81
2024-02-20T11:40:30.579Z,97380.00
2024-02-20T11:41:35.230Z,97381.16
2024-02-20T11:42:39.285Z,97369.41
2024-02-20T11:43:42.456Z,97372.13
2024-02-20T11:44:44.188Z,97364.63
2024-02-20T11:45:45.916Z,97369.97
2024-02-20T11:46:56.963Z,97368.75
2024-02-20T11:48:07.054Z,97367.66
2024-02-20T11:49:08.856Z,97363.41
2024-02-20T11:50:12.399Z,97363.44
2024-02-20T11:51:18.671Z,97361.09
2024-02-20T11:52:20.476Z,97364.31
2024-02-20T11:53:22.485Z,97363.59
2024-02-20T11:54:24.042Z,97360.50
2024-02-20T11:55:26.530Z,97360.50
2024-02-20T11:56:29.273Z,97362.44
2024-02-20T11:57:30.923Z,97356.22
2024-02-20T11:58:32.590Z,97359.03
2024-02-20T11:59:34.352Z,97354.09
2024-02-20T12:00:39.877Z,97356.84
2024-02-20T12:01:41.762Z,97361.16
2024-02-20T12:02:43.692Z,97361.09
2024-02-20T12:03:45.667Z,97352.88
2024-02-20T12:04:57.606Z,97354.38
2024-02-20T12:06:04.450Z,97347.00
2024-02-20T12:07:10.879Z,97351.28
2024-02-20T12:08:17.664Z,97350.84
2024-02-20T12:09:19.535Z,97349.59
2024-02-20T12:10:22.224Z,97337.78
2024-02-20T12:11:28.789Z,97341.66
2024-02-20T12:12:31.572Z,97347.50
2024-02-20T12:13:33.415Z,97343.16
2024-02-20T12:14:35.053Z,97347.13
2024-02-20T12:15:40.286Z,97342.81